Lunamar — 5BNV2 — position and weather

sailwx.info

Track history (hours):
 
Tides and Currents Weather Stations Pressure Air Temp Water Temp Dewpoint Dewpoint Depression Visibility Wind Speed Wind Dir Waves Ship Positions

Lunamar

Last reported at 2016-Feb-09 14:33 UTC. Time now 2016-Feb-12 18:14 UTC.
Position N 55°33' E 015°10'.

Length 90 m; draft 3.4 m.

Type: Cargo ship. MMSI: 212762000.

Date/timePositionNaut miles runAvg speedWind from/ knotsBaromVisibWave heightAir tempDewpointWater temp
2016-Feb-09 14:33N 55°33' E 015°10'1010.1
2016-Feb-09 13:33N 55°28' E 014°54'1010.5
2016-Feb-09 12:33N 55°23' E 014°38'1010.4
2016-Feb-09 11:33N 55°15' E 014°26'1010.1
2016-Feb-09 10:33N 55°11' E 014°09'1010.3
2016-Feb-09 09:32N 55°11' E 013°51'23 9.8
2016-Feb-09 07:09N 55°14' E 013°10'6 8.5
2016-Feb-09 06:29N 55°14' E 013°00'8 8.4
2016-Feb-09 05:33N 55°16' E 012°47'7 6.7
2016-Feb-09 04:33N 55°21' E 012°38'7 7.3
2016-Feb-09 03:33N 55°28' E 012°41'7 7.1
2016-Feb-09 02:33N 55°35' E 012°42'6 6.4
2016-Feb-09 01:33N 55°41' E 012°41'7 7.0
2016-Feb-09 00:33N 55°48' E 012°40'7 6.5
2016-Feb-08 23:33N 55°55' E 012°38'7 6.9
2016-Feb-08 22:33N 56°02' E 012°38'5 5.4
2016-Feb-08 21:33N 56°06' E 012°33'24 5.9
2016-Feb-08 17:31N 56°30' E 012°33'7 7.6
2016-Feb-08 16:33N 56°35' E 012°42'28 0.8
2016-Feb-07 06:33N 56°08' E 012°32'1211.7
2016-Feb-07 05:34N 55°58' E 012°43'1111.1
2016-Feb-07 04:34N 55°47' E 012°42'1211.8
2016-Feb-07 03:34N 55°35' E 012°42'1110.6
2016-Feb-07 02:33N 55°24' E 012°42'9 8.8
2016-Feb-07 01:34N 55°17' E 012°50'10 9.8
2016-Feb-07 00:34N 55°15' E 013°07'1010.3
2016-Feb-06 23:33N 55°15' E 013°25'1110.6
2016-Feb-06 22:33N 55°14' E 013°44'1010.3
2016-Feb-06 21:33N 55°14' E 014°02'10 9.5
2016-Feb-06 20:33N 55°15' E 014°18'10 9.9
2016-Feb-06 19:33N 55°23' E 014°29'10 9.7
2016-Feb-06 18:33N 55°30' E 014°42'10 9.9
2016-Feb-06 17:33N 55°34' E 014°57'1010.2
2016-Feb-06 16:33N 55°39' E 015°13'113 9.2
2016-Feb-06 04:16N 57°06' E 017°25'7 9.4
2016-Feb-06 03:33N 57°13' E 017°29'10 9.7
2016-Feb-06 02:34N 57°22' E 017°36'  
2016-Jan-30 15:33N 55°33' E 015°12'10 9.9
2016-Jan-30 14:33N 55°29' E 014°57'  
Track history (hours):
 
Tides and Currents Weather Stations Pressure Air Temp Water Temp Dewpoint Dewpoint Depression Visibility Wind Speed Wind Dir Waves Ship Positions

Lunamar

Last reported at 2016-Feb-09 14:33 UTC. Time now 2016-Feb-12 18:14 UTC.
Position N 55°33' E 015°10'.

Length 90 m; draft 3.4 m.

Type: Cargo ship. MMSI: 212762000.

Date/timePositionNaut miles runAvg speedWind from/ knotsBaromVisibWave heightAir tempDewpointWater temp
2016-Feb-09 14:33N 55°33' E 015°10'1010.1
2016-Feb-09 13:33N 55°28' E 014°54'1010.5
2016-Feb-09 12:33N 55°23' E 014°38'1010.4
2016-Feb-09 11:33N 55°15' E 014°26'1010.1
2016-Feb-09 10:33N 55°11' E 014°09'1010.3
2016-Feb-09 09:32N 55°11' E 013°51'23 9.8
2016-Feb-09 07:09N 55°14' E 013°10'6 8.5
2016-Feb-09 06:29N 55°14' E 013°00'8 8.4
2016-Feb-09 05:33N 55°16' E 012°47'7 6.7
2016-Feb-09 04:33N 55°21' E 012°38'7 7.3
2016-Feb-09 03:33N 55°28' E 012°41'7 7.1
2016-Feb-09 02:33N 55°35' E 012°42'6 6.4
2016-Feb-09 01:33N 55°41' E 012°41'7 7.0
2016-Feb-09 00:33N 55°48' E 012°40'7 6.5
2016-Feb-08 23:33N 55°55' E 012°38'7 6.9
2016-Feb-08 22:33N 56°02' E 012°38'5 5.4
2016-Feb-08 21:33N 56°06' E 012°33'24 5.9
2016-Feb-08 17:31N 56°30' E 012°33'7 7.6
2016-Feb-08 16:33N 56°35' E 012°42'28 0.8
2016-Feb-07 06:33N 56°08' E 012°32'1211.7
2016-Feb-07 05:34N 55°58' E 012°43'1111.1
2016-Feb-07 04:34N 55°47' E 012°42'1211.8
2016-Feb-07 03:34N 55°35' E 012°42'1110.6
2016-Feb-07 02:33N 55°24' E 012°42'9 8.8
2016-Feb-07 01:34N 55°17' E 012°50'10 9.8
2016-Feb-07 00:34N 55°15' E 013°07'1010.3
2016-Feb-06 23:33N 55°15' E 013°25'1110.6
2016-Feb-06 22:33N 55°14' E 013°44'1010.3
2016-Feb-06 21:33N 55°14' E 014°02'10 9.5
2016-Feb-06 20:33N 55°15' E 014°18'10 9.9
2016-Feb-06 19:33N 55°23' E 014°29'10 9.7
2016-Feb-06 18:33N 55°30' E 014°42'10 9.9
2016-Feb-06 17:33N 55°34' E 014°57'1010.2
2016-Feb-06 16:33N 55°39' E 015°13'113 9.2
2016-Feb-06 04:16N 57°06' E 017°25'7 9.4
2016-Feb-06 03:33N 57°13' E 017°29'10 9.7
2016-Feb-06 02:34N 57°22' E 017°36'  
2016-Jan-30 15:33N 55°33' E 015°12'10 9.9
2016-Jan-30 14:33N 55°29' E 014°57'  

Dump ship's entire track history